Time;durP1;ratioP1;P1;durP2;ratioP2;P2;SDS_P1;SDS_P2;PMS_P1;PMS_P2;Temp;Humidity;BMP_temperature;BMP_pressure;BME280_temperature;BME280_humidity;BME280_pressure;Samples;Min_cycle;Max_cycle;Signal;HPM_P1;HPM_P2
2022/05/06 00:02:24;;;;;;;28.07;18.17;;;14.70;99.90;;;;;;6249880;23;20383;-88
2022/05/06 00:04:51;;;;;;;24.63;18.07;;;14.60;99.90;;;;;;6249183;23;20387;-89
2022/05/06 00:07:18;;;;;;;26.47;18.90;;;14.50;99.90;;;;;;6249362;23;20964;-88
2022/05/06 00:09:45;;;;;;;24.13;18.70;;;14.60;99.90;;;;;;6248546;23;20408;-88
2022/05/06 00:12:17;;;;;;;24.63;18.07;;;14.50;99.90;;;;;;6249234;23;20405;-88
2022/05/06 00:14:45;;;;;;;24.77;17.67;;;14.50;99.90;;;;;;6248880;23;20448;-89
2022/05/06 00:17:12;;;;;;;24.37;17.93;;;14.60;99.90;;;;;;6268812;23;20420;-88
2022/05/06 00:19:39;;;;;;;25.27;17.87;;;14.80;99.90;;;;;;6263628;23;20392;-89
2022/05/06 00:22:05;;;;;;;20.20;16.03;;;15.00;99.90;;;;;;6249631;23;20470;-88
2022/05/06 00:24:33;;;;;;;23.93;18.10;;;15.10;99.90;;;;;;6248604;23;20518;-88
2022/05/06 00:27:00;;;;;;;26.17;17.47;;;14.90;99.90;;;;;;6259830;23;20433;-88
2022/05/06 00:29:29;;;;;;;27.80;18.23;;;14.90;99.90;;;;;;6272098;22;20770;-89
2022/05/06 00:31:56;;;;;;;19.23;16.13;;;15.00;99.90;;;;;;6273696;22;20408;-88
2022/05/06 00:34:23;;;;;;;24.87;17.00;;;15.10;99.90;;;;;;6257522;23;20451;-88
2022/05/06 00:36:49;;;;;;;20.83;16.33;;;15.10;99.90;;;;;;6251866;23;20408;-88
2022/05/06 00:39:16;;;;;;;27.57;18.27;;;15.00;99.90;;;;;;6250248;23;20495;-88
2022/05/06 00:41:43;;;;;;;20.00;16.53;;;15.10;99.90;;;;;;6250552;23;20907;-88
2022/05/06 00:44:10;;;;;;;23.17;17.97;;;15.00;99.90;;;;;;6249493;23;20786;-88
2022/05/06 00:46:39;;;;;;;22.40;16.17;;;14.90;99.90;;;;;;6248756;23;20918;-88
2022/05/06 00:49:09;;;;;;;22.30;17.20;;;14.70;99.90;;;;;;6259868;23;20376;-87
2022/05/06 00:51:37;;;;;;;24.90;17.40;;;14.70;99.90;;;;;;6263455;22;20719;-87
2022/05/06 00:54:06;;;;;;;22.27;18.17;;;14.80;99.90;;;;;;6248850;23;20424;-87
2022/05/06 00:56:33;;;;;;;25.80;16.83;;;15.00;99.90;;;;;;6250064;23;20439;-87
2022/05/06 00:59:00;;;;;;;24.07;18.13;;;14.80;99.90;;;;;;6266486;22;20386;-88
2022/05/06 01:01:29;;;;;;;21.93;17.93;;;14.90;99.90;;;;;;6268738;22;20475;-89
2022/05/06 01:03:57;;;;;;;27.37;18.93;;;14.80;99.90;;;;;;6250816;23;20465;-88
2022/05/06 01:06:25;;;;;;;26.73;18.07;;;14.80;99.90;;;;;;6262411;23;20429;-88
2022/05/06 01:08:53;;;;;;;25.23;18.23;;;14.80;99.90;;;;;;6270930;22;20382;-88
2022/05/06 01:11:20;;;;;;;22.63;17.47;;;14.80;99.90;;;;;;6254622;23;20895;-88
2022/05/06 01:13:53;;;;;;;28.40;17.53;;;14.70;99.90;;;;;;6250469;23;20435;-88
2022/05/06 01:16:20;;;;;;;24.00;17.70;;;14.70;99.90;;;;;;6251067;23;20438;-89
2022/05/06 01:18:48;;;;;;;22.73;18.00;;;14.80;99.90;;;;;;6265740;23;20409;-89
2022/05/06 01:21:22;;;;;;;23.90;18.00;;;14.80;99.90;;;;;;6254594;23;20420;-89
2022/05/06 01:23:50;;;;;;;24.00;18.00;;;14.80;99.90;;;;;;6249944;23;20459;-88
2022/05/06 01:26:17;;;;;;;22.23;17.20;;;15.00;99.90;;;;;;6247809;23;20713;-88
2022/05/06 01:28:46;;;;;;;23.67;17.43;;;14.80;99.90;;;;;;6259740;23;20387;-88
2022/05/06 01:31:20;;;;;;;21.37;16.83;;;15.00;99.90;;;;;;6256737;23;20829;-88
2022/05/06 01:33:54;;;;;;;26.10;16.60;;;14.80;99.90;;;;;;6263810;22;20440;-89
2022/05/06 01:36:24;;;;;;;23.43;17.60;;;14.80;99.90;;;;;;6252915;23;20443;-88
2022/05/06 01:38:56;;;;;;;26.93;17.03;;;14.80;99.90;;;;;;6247756;23;20466;-88
2022/05/06 01:41:26;;;;;;;23.70;17.33;;;14.70;99.90;;;;;;6248470;23;20429;-88
2022/05/06 01:43:57;;;;;;;22.33;17.90;;;14.60;99.90;;;;;;6248942;23;20476;-88
2022/05/06 01:46:28;;;;;;;24.63;17.80;;;14.60;99.90;;;;;;6248747;23;20396;-88
2022/05/06 01:48:56;;;;;;;27.07;18.97;;;14.60;99.90;;;;;;6258110;22;20377;-88
2022/05/06 01:51:24;;;;;;;26.53;18.23;;;14.70;99.90;;;;;;6272702;22;20408;-89
2022/05/06 01:53:52;;;;;;;23.90;17.10;;;14.80;99.90;;;;;;6270724;22;20495;-88
2022/05/06 01:56:20;;;;;;;24.60;18.80;;;14.70;99.90;;;;;;6255326;23;20444;-88
2022/05/06 01:58:47;;;;;;;30.40;17.87;;;14.70;99.90;;;;;;6249756;23;20414;-88
2022/05/06 02:01:14;;;;;;;26.50;19.13;;;14.60;99.90;;;;;;6248195;23;20423;-88
2022/05/06 02:06:28;;;;;;;24.97;17.17;;;14.70;99.90;;;;;;6247491;23;20690;-88
2022/05/06 02:08:57;;;;;;;26.27;19.77;;;14.80;99.90;;;;;;6247895;23;20392;-89
2022/05/06 02:11:24;;;;;;;25.93;17.13;;;14.70;99.90;;;;;;6248694;23;20430;-88
2022/05/06 02:13:51;;;;;;;23.17;17.00;;;14.80;99.90;;;;;;6249476;23;20456;-88
2022/05/06 02:16:17;;;;;;;21.27;17.07;;;14.80;99.90;;;;;;6248419;23;20451;-88
2022/05/06 02:18:44;;;;;;;23.50;17.00;;;14.70;99.90;;;;;;6247616;23;20450;-88
2022/05/06 02:21:11;;;;;;;23.23;16.43;;;14.60;99.90;;;;;;6247481;23;20408;-88
2022/05/06 02:23:38;;;;;;;23.80;16.90;;;14.70;99.90;;;;;;6270454;22;20402;-88
2022/05/06 02:26:06;;;;;;;21.43;16.10;;;14.70;99.90;;;;;;6267280;23;20898;-88
2022/05/06 02:28:33;;;;;;;24.27;16.70;;;14.70;99.90;;;;;;6249107;23;20412;-88
2022/05/06 02:33:44;;;;;;;21.70;16.37;;;14.70;99.90;;;;;;6247507;23;20419;-88
2022/05/06 02:36:12;;;;;;;21.63;14.50;;;14.70;99.90;;;;;;6247458;23;20414;-88
2022/05/06 02:38:39;;;;;;;22.03;15.00;;;14.60;99.90;;;;;;6248126;23;20444;-88
2022/05/06 02:41:08;;;;;;;21.17;15.77;;;14.70;99.90;;;;;;6247999;23;20408;-88
2022/05/06 02:43:36;;;;;;;20.33;16.10;;;14.80;99.90;;;;;;6252437;23;20443;-87
2022/05/06 02:46:03;;;;;;;20.23;15.80;;;14.80;99.90;;;;;;6247563;23;20609;-88
2022/05/06 02:48:30;;;;;;;19.30;15.53;;;14.60;99.90;;;;;;6247674;23;20413;-88
2022/05/06 02:50:57;;;;;;;19.07;15.70;;;14.40;99.90;;;;;;6247668;23;20413;-88
2022/05/06 02:53:24;;;;;;;22.93;16.67;;;14.60;99.90;;;;;;6249017;23;20980;-88
2022/05/06 02:55:51;;;;;;;24.67;17.80;;;14.50;99.90;;;;;;6259124;23;20519;-88
2022/05/06 02:58:19;;;;;;;24.37;15.67;;;14.40;99.90;;;;;;6246996;23;20408;-88
2022/05/06 03:00:46;;;;;;;25.33;15.10;;;14.40;99.90;;;;;;6247705;23;20419;-88
2022/05/06 03:03:13;;;;;;;19.40;14.37;;;14.40;99.90;;;;;;6254356;23;20466;-88
2022/05/06 03:05:40;;;;;;;21.83;16.70;;;14.70;99.90;;;;;;6268594;23;20428;-88
2022/05/06 03:08:07;;;;;;;20.53;15.20;;;14.70;99.90;;;;;;6271711;22;20401;-88
2022/05/06 03:10:34;;;;;;;22.03;15.60;;;14.60;99.90;;;;;;6259390;22;20421;-88
2022/05/06 03:13:01;;;;;;;20.27;15.00;;;14.40;99.90;;;;;;6268339;22;20437;-88
2022/05/06 03:15:29;;;;;;;23.93;15.63;;;14.40;99.90;;;;;;6272957;22;20459;-89
2022/05/06 03:17:57;;;;;;;21.97;15.80;;;14.40;99.90;;;;;;6273158;22;20454;-89
2022/05/06 03:20:24;;;;;;;20.67;15.33;;;14.30;99.90;;;;;;6273291;22;20383;-88
2022/05/06 03:22:52;;;;;;;20.47;16.30;;;14.40;99.90;;;;;;6273043;22;20484;-88
2022/05/06 03:25:21;;;;;;;23.20;15.33;;;14.30;99.90;;;;;;6272767;22;20386;-88
2022/05/06 03:28:01;;;;;;;27.00;15.43;;;14.30;99.90;;;;;;6272603;22;20478;-88
2022/05/06 03:30:31;;;;;;;21.20;15.33;;;14.40;99.90;;;;;;6272317;22;20347;-88
2022/05/06 03:32:58;;;;;;;19.73;15.70;;;14.40;99.90;;;;;;6272491;22;20450;-88
2022/05/06 03:35:27;;;;;;;19.20;14.67;;;14.40;99.90;;;;;;6257998;22;20567;-87
2022/05/06 03:37:53;;;;;;;19.97;14.00;;;14.30;99.90;;;;;;6250960;23;20481;-87
2022/05/06 03:40:20;;;;;;;22.87;14.60;;;14.40;99.90;;;;;;6256866;23;20443;-87
2022/05/06 03:42:47;;;;;;;21.53;15.07;;;14.30;99.90;;;;;;6253602;23;20414;-87
2022/05/06 03:45:14;;;;;;;19.40;14.80;;;14.30;99.90;;;;;;6254923;23;20408;-87
2022/05/06 03:47:43;;;;;;;19.33;15.20;;;14.30;99.90;;;;;;6267325;23;20423;-87
2022/05/06 03:52:55;;;;;;;20.23;14.60;;;14.30;99.90;;;;;;6258721;23;20402;-87
2022/05/06 03:55:23;;;;;;;23.43;15.30;;;14.30;99.90;;;;;;6255486;23;20440;-87
2022/05/06 03:57:50;;;;;;;17.00;13.30;;;14.30;99.90;;;;;;6264121;23;20496;-87
2022/05/06 04:00:19;;;;;;;17.77;13.27;;;14.40;99.90;;;;;;6250119;23;20439;-87
2022/05/06 04:02:47;;;;;;;15.13;13.20;;;14.40;99.90;;;;;;6249546;23;20744;-87
2022/05/06 04:05:14;;;;;;;20.77;13.13;;;14.50;99.90;;;;;;6250314;23;20439;-87
2022/05/06 04:07:41;;;;;;;17.13;12.43;;;14.40;99.90;;;;;;6248747;23;20425;-87
2022/05/06 04:10:09;;;;;;;20.47;14.13;;;14.30;99.90;;;;;;6248791;23;20877;-87
2022/05/06 04:12:36;;;;;;;21.53;13.87;;;14.20;99.90;;;;;;6248676;23;20409;-88
2022/05/06 04:15:04;;;;;;;17.40;14.40;;;14.10;99.90;;;;;;6249381;23;20463;-87
2022/05/06 04:17:31;;;;;;;18.37;14.00;;;14.00;99.90;;;;;;6248688;23;20479;-87
2022/05/06 04:25:28;;;;;;;23.60;14.63;;;14.10;99.90;;;;;;6273565;22;20467;-89
2022/05/06 04:27:55;;;;;;;21.93;15.13;;;14.30;99.90;;;;;;6273773;22;20364;-89
2022/05/06 04:30:22;;;;;;;20.80;15.10;;;14.10;99.90;;;;;;6274075;22;20375;-89
2022/05/06 04:32:49;;;;;;;22.23;15.30;;;14.20;99.90;;;;;;6274016;22;20402;-88
2022/05/06 04:35:18;;;;;;;17.23;14.30;;;14.20;99.90;;;;;;6273861;22;20364;-87
2022/05/06 04:37:44;;;;;;;22.93;15.47;;;14.30;99.90;;;;;;6269069;23;20392;-86
2022/05/06 04:40:14;;;;;;;18.53;14.43;;;14.30;99.90;;;;;;6262680;23;20379;-87
2022/05/06 04:42:40;;;;;;;19.10;14.20;;;14.20;99.90;;;;;;6249926;23;20535;-87
2022/05/06 04:45:08;;;;;;;21.47;14.73;;;14.20;99.90;;;;;;6257059;23;20474;-86
2022/05/06 04:47:37;;;;;;;20.80;15.77;;;14.20;99.90;;;;;;6250609;23;20744;-87
2022/05/06 04:50:04;;;;;;;18.23;14.30;;;14.10;99.90;;;;;;6250420;23;20419;-87
2022/05/06 04:52:33;;;;;;;16.87;13.37;;;14.20;99.90;;;;;;6249178;23;20911;-87
2022/05/06 04:54:59;;;;;;;21.83;14.53;;;14.00;99.90;;;;;;6248654;23;20842;-87
2022/05/06 04:57:26;;;;;;;17.50;14.77;;;13.90;99.90;;;;;;6249479;23;20415;-87
2022/05/06 04:59:53;;;;;;;17.67;14.47;;;13.90;99.90;;;;;;6248728;23;20431;-87
2022/05/06 05:02:20;;;;;;;18.73;15.00;;;13.90;99.90;;;;;;6264488;22;20512;-89
2022/05/06 05:04:52;;;;;;;18.40;13.30;;;13.90;99.90;;;;;;6289289;22;20494;-88
2022/05/06 05:07:20;;;;;;;17.27;14.17;;;13.90;99.90;;;;;;6290109;22;20457;-88
2022/05/06 05:09:48;;;;;;;18.13;14.67;;;13.90;99.90;;;;;;6288754;22;20510;-88
2022/05/06 05:12:15;;;;;;;19.30;14.70;;;13.90;99.90;;;;;;6287465;22;20523;-88
2022/05/06 05:14:42;;;;;;;18.43;14.27;;;13.80;99.90;;;;;;6290464;22;20439;-88
2022/05/06 05:17:09;;;;;;;20.40;15.17;;;13.90;99.90;;;;;;6297641;22;20526;-86
2022/05/06 05:19:42;;;;;;;16.77;13.43;;;13.90;99.90;;;;;;6295570;22;20437;-87
2022/05/06 05:22:09;;;;;;;14.53;12.00;;;14.00;99.90;;;;;;6296497;22;20402;-86
2022/05/06 05:24:36;;;;;;;14.47;12.10;;;14.10;99.90;;;;;;6287229;22;20407;-87
2022/05/06 05:27:05;;;;;;;20.80;14.80;;;14.00;99.90;;;;;;6290993;22;20382;-88
2022/05/06 05:29:31;;;;;;;15.50;12.03;;;14.00;99.90;;;;;;6303143;22;20400;-84
2022/05/06 05:31:58;;;;;;;17.43;12.57;;;14.00;99.90;;;;;;6303553;22;20436;-86
2022/05/06 05:34:25;;;;;;;16.13;13.17;;;14.00;99.90;;;;;;6304781;22;20397;-86
2022/05/06 05:36:53;;;;;;;17.63;12.87;;;13.90;99.90;;;;;;6301462;22;20417;-87
2022/05/06 05:39:20;;;;;;;19.90;13.40;;;13.80;99.90;;;;;;6292386;22;20855;-87
2022/05/06 05:41:49;;;;;;;16.73;13.10;;;14.00;99.90;;;;;;6293007;22;20889;-88
2022/05/06 05:49:47;;;;;;;21.97;15.30;;;13.80;99.90;;;;;;6298735;22;20414;-87
2022/05/06 05:52:14;;;;;;;19.60;13.57;;;13.80;99.90;;;;;;6297530;22;20428;-87
2022/05/06 05:54:41;;;;;;;17.27;13.60;;;13.90;99.90;;;;;;6293792;22;20419;-87
2022/05/06 05:57:08;;;;;;;16.33;12.30;;;13.80;99.90;;;;;;6293668;22;20497;-87
2022/05/06 05:59:37;;;;;;;21.13;14.50;;;13.90;99.90;;;;;;6293031;22;20443;-86
2022/05/06 06:02:05;;;;;;;15.60;13.57;;;13.80;99.90;;;;;;6302628;22;20501;-87
2022/05/06 06:04:32;;;;;;;17.10;12.80;;;13.70;99.90;;;;;;6303524;22;20383;-81
2022/05/06 06:06:59;;;;;;;18.43;14.30;;;13.90;99.90;;;;;;6300778;22;20490;-87
2022/05/06 06:09:27;;;;;;;15.40;13.00;;;13.80;99.90;;;;;;6298181;22;20378;-87
2022/05/06 06:11:54;;;;;;;17.00;13.53;;;13.80;99.90;;;;;;6298136;22;20454;-87
2022/05/06 06:14:21;;;;;;;18.43;13.60;;;13.70;99.90;;;;;;6299737;22;20835;-89
2022/05/06 06:16:50;;;;;;;16.67;12.83;;;13.70;99.90;;;;;;6302315;22;20466;-86
2022/05/06 06:19:17;;;;;;;20.80;13.77;;;13.60;99.90;;;;;;6296716;22;20795;-88
2022/05/06 06:21:44;;;;;;;17.40;13.70;;;13.70;99.90;;;;;;6290066;22;20523;-88
2022/05/06 06:24:12;;;;;;;19.70;13.70;;;13.80;99.90;;;;;;6288700;22;20418;-88
2022/05/06 06:26:39;;;;;;;18.93;14.30;;;13.80;99.90;;;;;;6288495;22;20709;-87
2022/05/06 06:29:06;;;;;;;21.90;14.20;;;13.70;99.90;;;;;;6288899;22;20439;-88
2022/05/06 06:31:33;;;;;;;19.47;14.47;;;13.80;99.90;;;;;;6289512;22;20483;-87
2022/05/06 06:34:02;;;;;;;17.83;14.20;;;13.80;99.90;;;;;;6289221;22;20392;-87
2022/05/06 06:36:29;;;;;;;19.43;13.60;;;14.00;99.90;;;;;;6292075;22;20448;-87
2022/05/06 06:39:11;;;;;;;18.60;14.00;;;14.10;99.90;;;;;;6290643;22;20740;-86
2022/05/06 06:41:40;;;;;;;19.70;13.90;;;14.10;99.90;;;;;;6286160;22;20427;-86
2022/05/06 06:44:07;;;;;;;20.90;12.80;;;14.20;99.90;;;;;;6286582;22;20758;-87
2022/05/06 06:46:34;;;;;;;18.30;13.83;;;14.20;99.90;;;;;;6285624;22;20407;-87
2022/05/06 06:49:03;;;;;;;16.33;13.10;;;14.20;99.90;;;;;;6288419;22;20415;-88
2022/05/06 06:51:31;;;;;;;18.90;14.70;;;14.20;99.90;;;;;;6287881;22;20404;-86
2022/05/06 06:53:59;;;;;;;21.67;13.87;;;14.00;99.90;;;;;;6293866;22;20479;-86
2022/05/06 06:56:26;;;;;;;19.40;14.40;;;13.90;99.90;;;;;;6288515;22;20416;-87
2022/05/06 06:58:53;;;;;;;18.90;14.60;;;14.00;99.90;;;;;;6290355;22;20737;-86
2022/05/06 07:01:20;;;;;;;15.27;11.73;;;14.00;99.90;;;;;;6288565;22;20419;-87
2022/05/06 07:03:50;;;;;;;19.00;14.27;;;14.00;99.90;;;;;;6291835;22;20437;-86
2022/05/06 07:11:57;;;;;;;19.87;14.13;;;13.90;99.90;;;;;;6285775;22;20410;-86
2022/05/06 07:14:25;;;;;;;20.30;13.37;;;13.90;99.90;;;;;;6286176;22;20438;-87
2022/05/06 07:16:53;;;;;;;19.53;12.87;;;13.80;99.90;;;;;;6285617;22;20446;-86
2022/05/06 07:19:21;;;;;;;17.30;13.27;;;13.90;99.90;;;;;;6285139;22;20385;-88
2022/05/06 07:21:54;;;;;;;16.50;13.43;;;14.00;99.90;;;;;;6290384;22;20428;-88
2022/05/06 07:24:24;;;;;;;25.00;19.20;;;14.00;99.90;;;;;;6296100;22;20418;-87
2022/05/06 07:26:52;;;;;;;20.97;13.63;;;14.00;99.90;;;;;;6289047;22;20433;-88
2022/05/06 07:29:20;;;;;;;16.37;13.77;;;14.10;99.90;;;;;;6286847;22;20419;-88
2022/05/06 07:31:47;;;;;;;16.73;11.87;;;14.10;99.90;;;;;;6285745;22;20417;-87
2022/05/06 07:34:15;;;;;;;18.17;13.97;;;14.30;99.90;;;;;;6285003;22;20406;-86
2022/05/06 07:36:43;;;;;;;14.63;11.03;;;14.40;99.90;;;;;;6301972;22;20438;-84
2022/05/06 07:39:12;;;;;;;14.97;9.90;;;14.40;99.90;;;;;;6295689;22;20414;-89
2022/05/06 07:41:40;;;;;;;15.33;10.60;;;14.10;99.90;;;;;;6286777;22;21009;-88
2022/05/06 07:44:08;;;;;;;15.33;11.60;;;13.90;99.90;;;;;;6291035;22;20438;-88
2022/05/06 07:46:36;;;;;;;14.43;10.83;;;13.90;99.90;;;;;;6292958;22;20969;-89
2022/05/06 07:49:03;;;;;;;16.23;11.33;;;14.00;99.90;;;;;;6294507;22;20410;-87
2022/05/06 07:51:30;;;;;;;15.03;10.70;;;14.10;99.90;;;;;;6289565;22;20411;-86
2022/05/06 07:53:58;;;;;;;11.67;9.77;;;14.10;99.90;;;;;;6293153;22;20383;-87
2022/05/06 07:56:28;;;;;;;13.13;10.00;;;14.10;99.90;;;;;;6290158;22;20394;-88
2022/05/06 07:58:56;;;;;;;14.13;9.40;;;14.30;99.90;;;;;;6285951;22;20486;-86
2022/05/06 08:06:51;;;;;;;16.00;9.80;;;14.30;99.90;;;;;;6297255;22;20376;-88
2022/05/06 08:09:18;;;;;;;14.73;9.80;;;14.20;99.90;;;;;;6297712;22;20485;-87
2022/05/06 08:11:46;;;;;;;15.63;10.50;;;14.20;99.90;;;;;;6293852;22;20777;-88
2022/05/06 08:14:14;;;;;;;13.00;10.37;;;14.30;99.90;;;;;;6292976;22;20423;-88
2022/05/06 08:16:41;;;;;;;12.53;9.73;;;14.40;99.90;;;;;;6291127;22;20447;-86
2022/05/06 08:19:08;;;;;;;13.53;9.20;;;14.60;99.90;;;;;;6288022;22;20411;-87
2022/05/06 08:21:34;;;;;;;14.80;8.50;;;14.80;99.90;;;;;;6286432;22;20498;-88
2022/05/06 08:24:01;;;;;;;15.10;9.47;;;14.60;99.90;;;;;;6285790;22;20370;-87
2022/05/06 08:26:28;;;;;;;10.00;8.50;;;14.60;99.90;;;;;;6286045;22;20448;-87
2022/05/06 08:28:57;;;;;;;18.40;10.10;;;14.80;99.90;;;;;;6286045;22;20398;-88
2022/05/06 08:31:23;;;;;;;10.87;8.80;;;14.80;99.90;;;;;;6285076;22;20404;-87
2022/05/06 08:33:50;;;;;;;12.10;9.00;;;14.90;99.90;;;;;;6284192;22;20773;-87
2022/05/06 08:36:19;;;;;;;11.17;8.97;;;14.90;99.90;;;;;;6285982;22;20459;-86
2022/05/06 08:38:46;;;;;;;12.00;9.00;;;15.00;99.90;;;;;;6289773;22;20422;-86
2022/05/06 08:41:13;;;;;;;11.17;9.07;;;15.00;99.90;;;;;;6287361;22;20414;-87
2022/05/06 08:43:40;;;;;;;13.83;9.47;;;15.00;99.90;;;;;;6285373;22;20427;-87
2022/05/06 08:51:41;;;;;;;10.10;7.90;;;15.10;99.90;;;;;;6285816;22;20389;-88
2022/05/06 08:54:08;;;;;;;11.13;8.50;;;15.10;99.90;;;;;;6301603;22;20398;-87
2022/05/06 08:56:35;;;;;;;14.23;9.63;;;15.00;99.90;;;;;;6304064;22;20382;-87
2022/05/06 08:59:01;;;;;;;11.60;8.33;;;15.00;99.90;;;;;;6300277;22;20396;-88
2022/05/06 09:01:30;;;;;;;9.10;7.70;;;15.20;99.90;;;;;;6302612;22;20427;-88
2022/05/06 09:03:57;;;;;;;12.10;9.10;;;15.00;99.90;;;;;;6301364;22;20403;-87
2022/05/06 09:06:27;;;;;;;9.30;7.87;;;14.90;99.90;;;;;;6287310;22;20390;-87
2022/05/06 09:08:55;;;;;;;10.97;9.57;;;15.00;99.90;;;;;;6284156;22;20490;-86
2022/05/06 09:12:40;;;;;;;11.80;8.33;;;15.20;99.90;;;;;;6287181;22;20379;-87
2022/05/06 09:14:15;;;;;;;11.87;9.13;;;15.30;99.90;;;;;;6284518;22;20403;-86
2022/05/06 09:16:44;;;;;;;11.63;9.30;;;15.30;99.90;;;;;;6284282;22;20875;-88
2022/05/06 09:19:21;;;;;;;13.20;8.70;;;15.30;99.90;;;;;;6284154;22;20386;-86
2022/05/06 09:22:11;;;;;;;13.90;8.57;;;15.30;99.90;;;;;;6283896;22;20450;-87
2022/05/06 09:24:39;;;;;;;12.73;8.23;;;15.40;99.90;;;;;;6285104;22;20396;-87
2022/05/06 09:27:08;;;;;;;12.13;8.90;;;15.40;99.90;;;;;;6285946;22;20384;-87
2022/05/06 09:29:38;;;;;;;11.83;8.10;;;15.50;99.90;;;;;;6284174;22;20400;-88
2022/05/06 09:32:17;;;;;;;12.77;8.90;;;15.40;99.90;;;;;;6284641;22;20443;-87
2022/05/06 09:34:46;;;;;;;15.87;9.07;;;15.50;99.90;;;;;;6285551;22;20405;-87
2022/05/06 09:37:13;;;;;;;11.30;8.57;;;15.30;99.90;;;;;;6284598;22;20418;-87
2022/05/06 09:39:41;;;;;;;10.37;7.90;;;15.30;99.90;;;;;;6285278;22;20386;-86
2022/05/06 09:42:08;;;;;;;10.40;7.40;;;15.30;99.90;;;;;;6289129;22;20435;-88
2022/05/06 09:44:35;;;;;;;10.70;7.63;;;15.20;99.90;;;;;;6287407;22;20473;-87
2022/05/06 09:47:11;;;;;;;16.00;8.43;;;15.20;99.90;;;;;;6287924;22;20370;-88
2022/05/06 09:49:43;;;;;;;9.10;7.63;;;15.30;99.90;;;;;;6287615;22;20497;-87
2022/05/06 09:52:12;;;;;;;12.20;7.80;;;15.50;99.90;;;;;;6287363;22;20451;-87
2022/05/06 09:54:42;;;;;;;17.03;8.43;;;15.70;99.90;;;;;;6290835;22;20371;-88
2022/05/06 09:57:10;;;;;;;11.10;7.93;;;15.80;99.90;;;;;;6298021;22;20461;-88
2022/05/06 09:59:38;;;;;;;12.07;7.67;;;16.10;99.90;;;;;;6285862;22;20374;-89
2022/05/06 10:02:05;;;;;;;9.30;7.63;;;16.40;99.90;;;;;;6285627;22;20443;-87
2022/05/06 10:04:33;;;;;;;8.63;7.13;;;16.20;99.90;;;;;;6286588;22;20407;-87
2022/05/06 10:07:01;;;;;;;11.30;8.10;;;16.20;99.90;;;;;;6288512;22;20378;-88
2022/05/06 10:09:46;;;;;;;10.03;7.30;;;16.20;99.90;;;;;;6286183;22;20407;-86
2022/05/06 10:12:18;;;;;;;10.93;8.63;;;16.20;99.90;;;;;;6290550;22;20411;-85
2022/05/06 10:14:45;;;;;;;11.20;7.87;;;16.50;99.90;;;;;;6288196;22;20378;-88
2022/05/06 10:17:12;;;;;;;9.53;7.50;;;16.80;99.90;;;;;;6295244;22;20439;-87
2022/05/06 10:19:46;;;;;;;11.33;7.83;;;16.90;99.90;;;;;;6297923;22;20374;-87
2022/05/06 10:22:15;;;;;;;8.73;6.73;;;16.90;99.90;;;;;;6289807;22;20913;-87
2022/05/06 10:24:49;;;;;;;10.27;8.03;;;16.90;99.90;;;;;;6287575;22;20415;-86
2022/05/06 10:32:25;;;;;;;15.67;8.00;;;16.90;99.90;;;;;;6284141;22;20371;-87
2022/05/06 10:33:15;;;;;;;11.90;8.53;;;17.60;99.90;;;;;;6285396;22;20421;-86
2022/05/06 10:35:43;;;;;;;13.00;7.90;;;17.60;99.90;;;;;;6286783;22;20465;-87
2022/05/06 10:38:23;;;;;;;11.17;8.67;;;17.70;99.90;;;;;;6288410;22;20429;-89
2022/05/06 10:40:57;;;;;;;18.30;10.07;;;17.80;99.90;;;;;;6285913;22;20858;-86
2022/05/06 10:43:50;;;;;;;14.70;9.03;;;17.80;99.90;;;;;;6282866;22;20394;-88
2022/05/06 10:46:31;;;;;;;12.43;8.90;;;18.00;99.90;;;;;;6284163;22;20415;-86
2022/05/06 10:49:51;;;;;;;12.37;8.77;;;18.00;99.90;;;;;;6284251;22;20476;-86
2022/05/06 10:52:40;;;;;;;11.63;9.20;;;18.00;99.90;;;;;;6284441;22;20398;-88
2022/05/06 10:55:12;;;;;;;11.70;8.07;;;18.20;99.90;;;;;;6287859;22;20370;-86
2022/05/06 10:58:07;;;;;;;10.40;7.40;;;18.40;99.90;;;;;;6286121;22;20460;-86
2022/05/06 11:00:38;;;;;;;10.40;7.83;;;18.50;99.90;;;;;;6288014;22;20359;-87
2022/05/06 11:03:05;;;;;;;13.47;8.20;;;18.20;99.90;;;;;;6287980;22;20439;-88
2022/05/06 11:05:32;;;;;;;9.50;6.60;;;18.10;99.90;;;;;;6292136;22;20458;-85
2022/05/06 11:08:01;;;;;;;10.37;6.90;;;18.30;99.90;;;;;;6297244;22;20442;-87
2022/05/06 11:10:34;;;;;;;9.00;6.77;;;18.20;99.90;;;;;;6292984;22;20416;-87
2022/05/06 11:13:07;;;;;;;12.07;7.47;;;18.20;99.90;;;;;;6288922;22;20409;-89
2022/05/06 11:15:35;;;;;;;10.83;7.13;;;18.30;99.90;;;;;;6290088;22;20398;-89
2022/05/06 11:18:04;;;;;;;9.07;6.57;;;18.40;99.90;;;;;;6288204;22;20498;-87
2022/05/06 11:20:33;;;;;;;9.57;7.13;;;18.40;99.90;;;;;;6286607;22;20407;-89
2022/05/06 11:23:02;;;;;;;15.53;7.20;;;18.60;99.90;;;;;;6286754;22;20431;-87
2022/05/06 11:25:35;;;;;;;9.60;5.77;;;18.80;99.20;;;;;;6289019;22;20374;-88
2022/05/06 11:28:13;;;;;;;8.43;5.67;;;18.90;99.10;;;;;;6290646;22;20400;-89
2022/05/06 11:30:45;;;;;;;9.20;6.77;;;18.60;99.10;;;;;;6295922;22;20367;-88
2022/05/06 11:33:20;;;;;;;11.57;6.60;;;18.70;99.60;;;;;;6294315;22;20466;-89
2022/05/06 11:36:03;;;;;;;8.73;6.33;;;18.70;99.70;;;;;;6295605;22;20478;-89
2022/05/06 11:38:32;;;;;;;9.40;6.83;;;18.90;99.60;;;;;;6301046;22;20427;-89
2022/05/06 11:41:08;;;;;;;9.27;6.27;;;19.20;99.60;;;;;;6300651;22;20413;-87
2022/05/06 11:43:35;;;;;;;9.47;6.90;;;19.40;97.90;;;;;;6293802;22;20427;-88
2022/05/06 11:48:48;;;;;;;7.40;6.33;;;19.00;98.10;;;;;;6305641;22;20347;-88
2022/05/06 11:51:22;;;;;;;11.77;6.33;;;19.20;98.40;;;;;;6300181;22;20397;-89
2022/05/06 11:53:50;;;;;;;18.53;6.70;;;19.40;97.70;;;;;;6300214;22;20376;-88
2022/05/06 11:56:22;;;;;;;7.90;6.00;;;19.40;97.60;;;;;;6300543;22;20411;-89
2022/05/06 11:58:50;;;;;;;8.60;6.73;;;19.10;97.50;;;;;;6293211;22;20429;-89
2022/05/06 12:01:26;;;;;;;9.20;6.47;;;19.00;98.20;;;;;;6290415;22;20415;-88
2022/05/06 12:03:53;;;;;;;9.60;6.83;;;19.00;97.80;;;;;;6289322;22;20358;-87
2022/05/06 12:06:27;;;;;;;10.20;5.80;;;18.70;98.10;;;;;;6295623;22;20380;-88
2022/05/06 12:09:11;;;;;;;8.80;6.53;;;18.70;98.70;;;;;;6291635;22;20398;-88
2022/05/06 12:11:40;;;;;;;11.13;5.90;;;18.80;98.60;;;;;;6293365;22;20456;-88
2022/05/06 12:14:08;;;;;;;10.63;7.10;;;19.00;97.90;;;;;;6291508;22;20429;-87
2022/05/06 12:16:36;;;;;;;11.27;6.80;;;18.80;98.30;;;;;;6290828;22;20366;-88
2022/05/06 12:19:03;;;;;;;8.70;6.13;;;18.90;98.30;;;;;;6287490;22;20446;-87
2022/05/06 12:21:33;;;;;;;8.50;6.57;;;19.00;97.40;;;;;;6287771;22;20409;-89
2022/05/06 12:24:01;;;;;;;8.53;6.63;;;18.90;96.90;;;;;;6288814;22;20398;-88
2022/05/06 12:26:33;;;;;;;10.30;6.47;;;18.90;96.90;;;;;;6286650;22;20750;-87
2022/05/06 12:29:05;;;;;;;10.07;7.30;;;19.00;97.20;;;;;;6287684;22;20426;-87
2022/05/06 12:31:33;;;;;;;9.37;6.23;;;19.10;97.30;;;;;;6288347;22;20453;-89
2022/05/06 12:34:06;;;;;;;12.00;7.03;;;19.20;97.40;;;;;;6291040;22;20405;-87
2022/05/06 12:36:33;;;;;;;9.20;5.70;;;19.30;96.70;;;;;;6295674;22;20400;-88
2022/05/06 12:39:00;;;;;;;9.83;6.77;;;19.40;96.40;;;;;;6291000;22;20425;-87
2022/05/06 12:41:33;;;;;;;9.67;6.43;;;19.20;96.90;;;;;;6291765;22;20553;-87
2022/05/06 12:44:20;;;;;;;7.87;6.50;;;19.00;97.20;;;;;;6289078;22;20392;-87
2022/05/06 12:46:47;;;;;;;10.27;5.90;;;18.90;96.80;;;;;;6289699;22;20343;-87
2022/05/06 12:51:59;;;;;;;8.17;5.60;;;19.10;96.60;;;;;;6290293;22;20414;-87
2022/05/06 12:54:27;;;;;;;10.50;6.00;;;18.90;96.90;;;;;;6293206;22;20375;-87
2022/05/06 12:57:01;;;;;;;9.27;5.60;;;18.80;97.30;;;;;;6294504;22;20408;-88
2022/05/06 12:59:30;;;;;;;9.50;6.30;;;18.70;97.30;;;;;;6301798;22;20470;-88
2022/05/06 13:01:57;;;;;;;6.57;5.87;;;18.80;97.50;;;;;;6303025;22;20423;-88
2022/05/06 13:04:24;;;;;;;7.80;5.50;;;18.80;97.60;;;;;;6294333;22;20400;-88
2022/05/06 13:06:51;;;;;;;7.57;6.13;;;18.70;97.70;;;;;;6293770;22;20366;-87
2022/05/06 13:09:18;;;;;;;9.20;5.93;;;18.90;97.80;;;;;;6297461;22;20386;-87
2022/05/06 13:11:44;;;;;;;9.77;6.80;;;18.90;97.50;;;;;;6292516;22;20462;-87
2022/05/06 13:14:11;;;;;;;8.33;6.43;;;19.10;97.30;;;;;;6298366;22;20379;-86
2022/05/06 13:16:40;;;;;;;7.40;5.10;;;19.30;97.10;;;;;;6302272;22;20427;-86
2022/05/06 13:21:35;;;;;;;7.23;6.17;;;19.30;96.80;;;;;;6231415;23;20436;-87
2022/05/06 13:24:01;;;;;;;9.50;5.97;;;19.40;96.50;;;;;;6232601;23;20379;-87
2022/05/06 13:26:30;;;;;;;7.23;6.43;;;19.00;96.60;;;;;;6233324;23;20401;-87
2022/05/06 13:28:57;;;;;;;8.90;5.43;;;19.10;96.90;;;;;;6227739;23;20388;-87
2022/05/06 13:31:24;;;;;;;7.57;6.03;;;19.10;96.80;;;;;;6194763;23;20417;-87